Portada
METAR-TAF:

METAR-TAF

Aeropuertos :

Kecskemét, Hungría

latitud: 46-55N, longitud: 019-45E, altitud: 113 m

Observación

El informe se hizo hace 46 minutos, a las 10:15 UTC
Viento 14 kt del noreste, variando entre norte y este
Temperatura 16°C
Humedad 29%
Presión 1022 hPa
Visibilidad 10 km o más
sin nubes por debajo de 1500 m y sin presencia de cumulonimbus.

METAR: LHKE 041015Z 05014KT 010V080 CAVOK 16/M02 Q1022 R12/01//95 NOSIG RMK BLU

Hora: 13:01 (11:01 UTC)

Pronóstico

El informe se hizo hace 2 horas y 46 minutos, a las 08:15 UTC
Pronóstico válido del 04 a las 09 UTC al 04 a las 18 UTC
Viento 12 kt del noreste
Visibilidad 10 km o más
sin nubes por debajo de 1500 m y sin presencia de cumulonimbus.
Temporalmente
del 04 a las 09 UTC al 04 a las 17 UTC
Viento 13 kt del noreste con ráfagas de 23 kt

TAF: LHKE 040815Z 0409/0418 04012KT CAVOK TEMPO 0409/0417 04013G23KT

Observaciones y pronósticos meteorológicos de más de 4000 aeropuertos (mensajes METAR y TAF).

Los puntos amarillos y rojos representan las estaciones disponibles.

Ponga el ratón en el punto deseado para ver el nombre de la estación.

Haga clic para ver las observaciones y los pronósticos meteorológicos.

Para cambiar el mapa : haga clic en los botones verdes con una cruz de color negro para hacer un zoom, en el botón verde con un guión para alejar o en las flechas verdes para mapas adyacentes.


METAR-TAF: